Time;durP1;ratioP1;P1;durP2;ratioP2;P2;SDS_P1;SDS_P2;PMS_P1;PMS_P2;Temp;Humidity;BMP_temperature;BMP_pressure;BME280_temperature;BME280_humidity;BME280_pressure;Samples;Min_cycle;Max_cycle;Signal;HPM_P1;HPM_P2
2022/04/28 00:00:26;;;;;;;3.70;2.60;;;;;;;;;;5075220;28;20024;-79
2022/04/28 00:02:54;;;;;;;5.97;3.03;;;;;;;;;;5075020;28;20020;-77
2022/04/28 00:05:21;;;;;;;5.88;3.00;;;;;;;;;;5075844;28;20052;-78
2022/04/28 00:07:49;;;;;;;5.20;4.70;;;;;;;;;;5075191;28;20020;-78
2022/04/28 00:10:16;;;;;;;6.47;4.72;;;;;;;;;;5075688;28;20070;-79
2022/04/28 00:12:44;;;;;;;5.15;4.05;;;;;;;;;;5076071;28;20032;-78
2022/04/28 00:15:11;;;;;;;5.00;3.80;;;;;;;;;;5075878;28;20021;-79
2022/04/28 00:29:52;;;;;;;7.13;6.43;;;;;;;;;;5074971;28;20020;-79
2022/04/28 00:32:19;;;;;;;5.05;3.95;;;;;;;;;;5073096;28;20025;-79
2022/04/28 00:34:49;;;;;;;3.92;3.47;;;;;;;;;;5075088;28;20059;-79
2022/04/28 00:37:18;;;;;;;5.07;3.42;;;;;;;;;;5073947;28;20491;-79
2022/04/28 00:39:46;;;;;;;3.95;2.83;;;;;;;;;;5075089;28;20012;-79
2022/04/28 00:42:14;;;;;;;3.38;2.13;;;;;;;;;;5073163;28;20021;-79
2022/04/28 00:44:41;;;;;;;3.92;2.88;;;;;;;;;;5074376;28;20069;-80
2022/04/28 00:47:09;;;;;;;3.40;2.40;;;;;;;;;;5075354;28;20025;-79
2022/04/28 00:52:22;;;;;;;2.55;1.80;;;;;;;;;;5074470;28;20523;-79
2022/04/28 00:54:50;;;;;;;2.50;1.92;;;;;;;;;;5073957;28;20028;-79
2022/04/28 00:57:18;;;;;;;3.10;1.90;;;;;;;;;;5074800;28;20024;-79
2022/04/28 00:59:47;;;;;;;4.30;2.20;;;;;;;;;;5075737;28;20027;-79
2022/04/28 01:02:14;;;;;;;1.58;1.42;;;;;;;;;;5075804;28;20028;-79
2022/04/28 01:04:41;;;;;;;3.17;1.80;;;;;;;;;;5074030;28;20048;-79
2022/04/28 01:07:09;;;;;;;3.70;1.75;;;;;;;;;;5073855;28;20017;-80
2022/04/28 01:09:39;;;;;;;3.58;2.00;;;;;;;;;;5072311;28;20021;-80
2022/04/28 01:12:14;;;;;;;2.90;2.00;;;;;;;;;;5073650;28;20427;-80
2022/04/28 01:14:44;;;;;;;1.73;1.50;;;;;;;;;;5072192;28;20043;-80
2022/04/28 01:17:11;;;;;;;;;;;;;;;;;;5072533;28;20074;-79
2022/04/28 01:19:38;;;;;;;1.65;1.30;;;;;;;;;;5072708;28;19908;-77
2022/04/28 01:22:06;;;;;;;1.25;1.10;;;;;;;;;;5072094;28;20127;-79
2022/04/28 01:24:33;;;;;;;2.90;1.40;;;;;;;;;;5072036;28;20452;-80
2022/04/28 01:27:02;;;;;;;1.90;1.20;;;;;;;;;;5073357;28;20020;-76
2022/04/28 01:29:32;;;;;;;2.88;1.33;;;;;;;;;;5071838;28;20020;-77
2022/04/28 01:31:59;;;;;;;;;;;;;;;;;;5072358;28;20079;-76
2022/04/28 01:34:26;;;;;;;1.40;0.82;;;;;;;;;;5073167;28;19905;-77
2022/04/28 01:36:53;;;;;;;2.13;1.05;;;;;;;;;;5071914;28;20047;-76
2022/04/28 01:39:20;;;;;;;1.25;0.90;;;;;;;;;;5073132;28;20125;-77
2022/04/28 01:41:51;;;;;;;0.90;0.80;;;;;;;;;;5073653;28;20017;-77
2022/04/28 01:44:17;;;;;;;;;;;;;;;;;;5072800;28;20099;-77
2022/04/28 01:46:45;;;;;;;1.92;1.38;;;;;;;;;;5073721;28;19905;-77
2022/04/28 01:49:13;;;;;;;6.25;1.60;;;;;;;;;;5073230;28;20032;-77
2022/04/28 01:57:10;;;;;;;2.90;0.85;;;;;;;;;;5073126;28;20032;-77
2022/04/28 01:59:38;;;;;;;0.95;0.80;;;;;;;;;;5072967;28;20096;-76
2022/04/28 02:02:05;;;;;;;0.98;0.88;;;;;;;;;;5072955;28;20013;-77
2022/04/28 02:04:32;;;;;;;1.90;1.25;;;;;;;;;;5071364;28;20446;-77
2022/04/28 02:06:59;;;;;;;2.65;1.00;;;;;;;;;;5072910;28;20024;-77
2022/04/28 02:09:26;;;;;;;1.45;1.10;;;;;;;;;;5072970;28;20017;-76
2022/04/28 02:11:53;;;;;;;2.35;0.90;;;;;;;;;;5073014;28;20024;-76
2022/04/28 02:14:21;;;;;;;2.08;0.90;;;;;;;;;;5072866;28;20065;-76
2022/04/28 02:16:48;;;;;;;1.90;0.73;;;;;;;;;;5072810;28;20021;-76
2022/04/28 02:19:15;;;;;;;1.60;0.65;;;;;;;;;;5071546;28;20046;-76
2022/04/28 02:21:43;;;;;;;1.45;0.80;;;;;;;;;;5071524;28;20017;-76
2022/04/28 02:24:10;;;;;;;1.45;0.60;;;;;;;;;;5072832;28;20036;-76
2022/04/28 02:26:37;;;;;;;2.35;0.90;;;;;;;;;;5071478;28;20086;-77
2022/04/28 02:29:04;;;;;;;1.15;0.68;;;;;;;;;;5072766;28;20028;-76
2022/04/28 02:31:31;;;;;;;1.73;0.60;;;;;;;;;;5075548;28;20054;-76
2022/04/28 02:33:59;;;;;;;0.75;0.40;;;;;;;;;;5076713;28;20434;-76
2022/04/28 02:36:26;;;;;;;0.93;0.47;;;;;;;;;;5076636;28;20393;-76
2022/04/28 02:38:53;;;;;;;1.20;0.50;;;;;;;;;;5075409;28;20437;-76
2022/04/28 02:41:21;;;;;;;0.95;0.77;;;;;;;;;;5076572;28;20089;-76
2022/04/28 02:43:51;;;;;;;1.15;0.60;;;;;;;;;;5076674;28;20391;-76
2022/04/28 02:46:18;;;;;;;1.88;0.70;;;;;;;;;;5076506;28;20054;-76
2022/04/28 02:48:46;;;;;;;1.05;0.77;;;;;;;;;;5076700;28;20021;-76
2022/04/28 02:51:15;;;;;;;2.60;1.10;;;;;;;;;;5076504;28;20051;-76
2022/04/28 02:53:42;;;;;;;2.92;1.10;;;;;;;;;;5076616;28;20016;-77
2022/04/28 02:56:10;;;;;;;2.72;1.25;;;;;;;;;;5076442;28;20491;-76
2022/04/28 02:58:37;;;;;;;1.77;0.82;;;;;;;;;;5076279;28;20040;-76
2022/04/28 03:01:04;;;;;;;0.95;0.70;;;;;;;;;;5076259;28;20096;-76
2022/04/28 03:03:32;;;;;;;2.20;1.30;;;;;;;;;;5075110;28;20112;-76
2022/04/28 03:11:30;;;;;;;1.25;0.75;;;;;;;;;;5076245;28;20552;-76
2022/04/28 03:13:58;;;;;;;2.40;0.90;;;;;;;;;;5074947;28;20028;-76
2022/04/28 03:16:25;;;;;;;5.32;1.00;;;;;;;;;;5074416;28;20033;-77
2022/04/28 03:18:52;;;;;;;6.70;1.95;;;;;;;;;;5075977;28;20021;-78
2022/04/28 03:21:20;;;;;;;4.28;1.73;;;;;;;;;;5075717;28;20031;-79
2022/04/28 03:23:48;;;;;;;4.40;1.30;;;;;;;;;;5075717;28;20024;-78
2022/04/28 03:26:15;;;;;;;3.90;1.45;;;;;;;;;;5074342;28;20024;-78
2022/04/28 03:28:42;;;;;;;3.80;1.50;;;;;;;;;;5076020;28;20032;-78
2022/04/28 03:31:09;;;;;;;7.75;1.92;;;;;;;;;;5075618;28;20083;-79
2022/04/28 03:33:36;;;;;;;3.97;1.23;;;;;;;;;;5075812;28;20088;-80
2022/04/28 03:36:50;;;;;;;2.15;0.88;;;;;;;;;;5074094;28;20025;-80
2022/04/28 03:38:51;;;;;;;2.88;1.10;;;;;;;;;;5075266;28;20036;-80
2022/04/28 03:41:18;;;;;;;4.75;1.40;;;;;;;;;;5074311;28;20095;-80
2022/04/28 03:43:45;;;;;;;4.30;1.17;;;;;;;;;;5074198;28;20052;-80
2022/04/28 03:46:15;;;;;;;3.92;1.15;;;;;;;;;;5075639;28;20039;-80
2022/04/28 03:48:43;;;;;;;2.67;1.25;;;;;;;;;;5074128;28;20031;-81
2022/04/28 03:51:10;;;;;;;2.15;0.82;;;;;;;;;;5074232;28;20029;-80
2022/04/28 03:53:37;;;;;;;3.15;0.85;;;;;;;;;;5073980;28;20033;-80
2022/04/28 03:56:05;;;;;;;2.42;1.13;;;;;;;;;;5074028;28;20527;-80
2022/04/28 03:58:32;;;;;;;2.65;0.90;;;;;;;;;;5075152;28;20088;-79
2022/04/28 04:01:00;;;;;;;3.40;1.10;;;;;;;;;;5074274;28;20024;-81
2022/04/28 04:03:28;;;;;;;2.33;1.10;;;;;;;;;;5075412;28;20408;-81
2022/04/28 04:05:55;;;;;;;3.28;1.15;;;;;;;;;;5073539;28;20430;-80
2022/04/28 04:08:22;;;;;;;3.38;0.90;;;;;;;;;;5073682;28;20032;-79
2022/04/28 04:10:49;;;;;;;3.22;1.10;;;;;;;;;;5073819;28;20109;-80
2022/04/28 04:13:16;;;;;;;5.18;0.95;;;;;;;;;;5074116;28;20121;-80
2022/04/28 04:15:43;;;;;;;2.47;0.75;;;;;;;;;;5074810;28;20051;-81
2022/04/28 04:18:11;;;;;;;2.70;1.00;;;;;;;;;;5075334;28;20429;-80
2022/04/28 04:20:38;;;;;;;3.13;0.80;;;;;;;;;;5074906;28;20091;-81
2022/04/28 04:23:05;;;;;;;2.30;1.10;;;;;;;;;;5075919;28;20108;-80
2022/04/28 04:25:33;;;;;;;2.70;1.10;;;;;;;;;;5075588;28;20028;-80
2022/04/28 04:28:00;;;;;;;2.08;1.08;;;;;;;;;;5076139;28;20070;-80
2022/04/28 04:33:12;;;;;;;1.98;0.88;;;;;;;;;;5074416;28;20086;-80
2022/04/28 04:35:39;;;;;;;2.13;1.02;;;;;;;;;;5074312;28;20494;-79
2022/04/28 04:38:06;;;;;;;2.72;1.00;;;;;;;;;;5074383;28;20020;-80
2022/04/28 04:40:34;;;;;;;2.40;1.20;;;;;;;;;;5072942;28;20107;-80
2022/04/28 04:43:02;;;;;;;2.22;1.02;;;;;;;;;;5072828;28;20397;-80
2022/04/28 04:45:29;;;;;;;2.03;1.02;;;;;;;;;;5072879;28;20365;-79
2022/04/28 04:47:57;;;;;;;1.95;1.02;;;;;;;;;;5074047;28;20055;-79
2022/04/28 04:50:24;;;;;;;1.80;1.10;;;;;;;;;;5074061;28;20024;-79
2022/04/28 04:52:51;;;;;;;2.30;0.82;;;;;;;;;;5073680;28;20370;-80
2022/04/28 04:55:18;;;;;;;3.70;1.10;;;;;;;;;;5072566;28;20020;-80
2022/04/28 04:57:45;;;;;;;1.48;0.80;;;;;;;;;;5073968;28;20017;-79
2022/04/28 05:00:17;;;;;;;2.15;0.90;;;;;;;;;;5053785;28;20060;-79
2022/04/28 05:02:44;;;;;;;2.25;0.90;;;;;;;;;;5052554;28;20021;-79
2022/04/28 05:05:11;;;;;;;2.78;0.90;;;;;;;;;;5052164;28;20045;-79
2022/04/28 05:07:38;;;;;;;2.10;1.00;;;;;;;;;;5052431;28;20029;-79
2022/04/28 05:10:05;;;;;;;2.22;1.10;;;;;;;;;;5052366;28;20032;-79
2022/04/28 05:12:32;;;;;;;2.25;0.85;;;;;;;;;;5053737;28;20412;-80
2022/04/28 05:15:00;;;;;;;3.13;0.90;;;;;;;;;;5052222;28;20405;-79
2022/04/28 05:17:27;;;;;;;2.58;0.95;;;;;;;;;;5052315;28;20476;-79
2022/04/28 05:20:00;;;;;;;4.57;1.30;;;;;;;;;;5053417;28;20088;-80
2022/04/28 05:22:27;;;;;;;2.40;0.80;;;;;;;;;;5052836;28;20028;-79
2022/04/28 05:24:54;;;;;;;3.92;1.10;;;;;;;;;;5052919;28;20112;-80
2022/04/28 05:27:21;;;;;;;1.48;0.73;;;;;;;;;;5052432;28;20017;-79
2022/04/28 05:29:49;;;;;;;3.20;1.30;;;;;;;;;;5053255;28;20021;-81
2022/04/28 05:32:16;;;;;;;1.38;0.90;;;;;;;;;;5052257;28;20099;-80
2022/04/28 05:34:43;;;;;;;2.28;1.00;;;;;;;;;;5051796;28;20469;-79
2022/04/28 05:37:14;;;;;;;2.13;0.75;;;;;;;;;;5053465;28;20017;-80
2022/04/28 05:39:43;;;;;;;4.28;1.20;;;;;;;;;;5053081;28;20013;-80
2022/04/28 05:42:10;;;;;;;1.42;0.80;;;;;;;;;;5051985;28;20043;-80
2022/04/28 05:47:24;;;;;;;1.17;0.60;;;;;;;;;;5053419;28;20116;-80
2022/04/28 05:49:52;;;;;;;1.17;0.73;;;;;;;;;;5051771;28;20025;-79
2022/04/28 05:52:19;;;;;;;1.98;0.80;;;;;;;;;;5052966;28;20032;-79
2022/04/28 05:54:46;;;;;;;2.50;0.80;;;;;;;;;;5052838;28;20039;-79
2022/04/28 05:57:13;;;;;;;2.30;0.70;;;;;;;;;;5053074;28;20412;-79
2022/04/28 05:59:40;;;;;;;1.20;0.65;;;;;;;;;;5053144;28;20017;-79
2022/04/28 06:02:10;;;;;;;1.67;0.82;;;;;;;;;;5051556;28;20028;-79
2022/04/28 06:04:37;;;;;;;1.98;0.73;;;;;;;;;;5050792;28;20041;-78
2022/04/28 06:07:05;;;;;;;1.75;0.88;;;;;;;;;;5053252;28;20052;-79
2022/04/28 06:09:33;;;;;;;2.50;1.15;;;;;;;;;;5053023;28;20018;-80
2022/04/28 06:12:00;;;;;;;1.95;0.70;;;;;;;;;;5053730;28;20111;-79
2022/04/28 06:14:27;;;;;;;2.58;0.93;;;;;;;;;;5052872;28;20029;-80
2022/04/28 06:16:54;;;;;;;1.40;0.73;;;;;;;;;;5055842;28;20112;-80
2022/04/28 06:19:23;;;;;;;3.67;1.25;;;;;;;;;;5056701;28;20013;-79
2022/04/28 06:21:51;;;;;;;2.35;0.90;;;;;;;;;;5054813;28;20049;-79
2022/04/28 06:24:18;;;;;;;4.05;0.98;;;;;;;;;;5053865;28;20066;-81
2022/04/28 06:26:45;;;;;;;3.33;1.00;;;;;;;;;;5054891;28;20040;-80
2022/04/28 06:29:12;;;;;;;3.28;1.00;;;;;;;;;;5054674;28;20370;-79
2022/04/28 06:31:39;;;;;;;2.50;0.98;;;;;;;;;;5053633;28;20050;-81
2022/04/28 06:34:06;;;;;;;4.00;1.20;;;;;;;;;;5053417;28;20032;-81
2022/04/28 06:36:34;;;;;;;1.13;0.95;;;;;;;;;;5054353;28;20021;-80
2022/04/28 06:39:02;;;;;;;2.78;1.65;;;;;;;;;;5053338;28;20021;-81
2022/04/28 06:41:29;;;;;;;5.75;1.83;;;;;;;;;;5052547;28;20425;-79
2022/04/28 06:43:56;;;;;;;3.72;1.95;;;;;;;;;;5052400;28;20017;-78
2022/04/28 06:46:23;;;;;;;3.63;1.55;;;;;;;;;;5050861;28;20060;-78
2022/04/28 06:48:51;;;;;;;3.60;1.58;;;;;;;;;;5052346;28;20029;-79
2022/04/28 06:51:18;;;;;;;2.97;1.52;;;;;;;;;;5052198;28;20029;-78
2022/04/28 06:53:45;;;;;;;2.80;1.50;;;;;;;;;;5050907;28;20049;-78
2022/04/28 06:56:13;;;;;;;5.30;1.55;;;;;;;;;;5052148;28;20036;-78
2022/04/28 06:58:40;;;;;;;5.38;1.75;;;;;;;;;;5052428;28;20420;-79
2022/04/28 07:01:07;;;;;;;3.15;1.80;;;;;;;;;;5052202;28;20033;-79
2022/04/28 07:03:34;;;;;;;5.32;2.00;;;;;;;;;;5052319;28;20021;-79
2022/04/28 07:06:02;;;;;;;4.40;1.70;;;;;;;;;;5050767;28;20037;-79
2022/04/28 07:08:30;;;;;;;5.90;2.05;;;;;;;;;;5052276;28;20033;-80
2022/04/28 07:10:58;;;;;;;3.15;1.65;;;;;;;;;;5052378;28;20501;-78
2022/04/28 07:13:25;;;;;;;4.35;2.40;;;;;;;;;;5050873;28;20032;-78
2022/04/28 07:15:52;;;;;;;5.15;2.00;;;;;;;;;;5053504;28;20112;-78
2022/04/28 07:18:19;;;;;;;8.07;2.22;;;;;;;;;;5055789;28;20469;-78
2022/04/28 07:20:47;;;;;;;4.32;1.45;;;;;;;;;;5055817;28;20025;-78
2022/04/28 07:23:14;;;;;;;3.67;1.73;;;;;;;;;;5054467;28;20074;-79
2022/04/28 07:25:41;;;;;;;6.00;1.80;;;;;;;;;;5054292;28;20033;-78
2022/04/28 07:28:08;;;;;;;3.30;1.90;;;;;;;;;;5055609;28;20052;-78
2022/04/28 07:30:35;;;;;;;2.97;1.60;;;;;;;;;;5054328;28;20021;-78
2022/04/28 07:33:03;;;;;;;3.00;1.83;;;;;;;;;;5055506;28;20511;-78
2022/04/28 07:35:31;;;;;;;3.40;1.60;;;;;;;;;;5054266;28;20025;-79
2022/04/28 07:37:58;;;;;;;5.20;2.25;;;;;;;;;;5055654;28;20017;-79
2022/04/28 07:40:25;;;;;;;3.50;2.00;;;;;;;;;;5055844;28;20028;-78
2022/04/28 07:42:52;;;;;;;4.55;2.00;;;;;;;;;;5054239;28;20074;-78
2022/04/28 07:45:20;;;;;;;5.85;2.63;;;;;;;;;;5055469;28;20100;-78
2022/04/28 07:47:47;;;;;;;5.97;2.42;;;;;;;;;;5055961;28;20052;-77
2022/04/28 07:50:14;;;;;;;3.97;1.98;;;;;;;;;;5055532;28;20025;-78
2022/04/28 07:52:42;;;;;;;5.22;2.47;;;;;;;;;;5055420;28;20380;-78
2022/04/28 07:55:10;;;;;;;2.60;1.48;;;;;;;;;;5055184;28;20102;-78
2022/04/28 07:57:38;;;;;;;7.13;2.22;;;;;;;;;;5055536;28;20017;-78
2022/04/28 08:00:06;;;;;;;3.10;1.63;;;;;;;;;;5055100;28;20029;-78
2022/04/28 08:02:33;;;;;;;3.13;1.42;;;;;;;;;;5055430;28;20033;-78
2022/04/28 08:05:00;;;;;;;3.95;1.80;;;;;;;;;;5053639;28;20103;-78
2022/04/28 08:07:28;;;;;;;3.83;1.90;;;;;;;;;;5055418;28;20021;-78
2022/04/28 08:09:55;;;;;;;3.55;1.80;;;;;;;;;;5055349;28;20020;-78
2022/04/28 08:12:22;;;;;;;4.10;2.17;;;;;;;;;;5055701;28;20079;-79
2022/04/28 08:14:49;;;;;;;5.15;1.95;;;;;;;;;;5054294;28;20049;-79
2022/04/28 08:17:17;;;;;;;3.65;2.13;;;;;;;;;;5054176;28;20032;-78
2022/04/28 08:19:44;;;;;;;3.35;1.52;;;;;;;;;;5054870;28;20036;-79
2022/04/28 08:22:11;;;;;;;5.03;2.10;;;;;;;;;;5056762;28;20024;-77
2022/04/28 08:24:38;;;;;;;4.68;1.50;;;;;;;;;;5055831;28;20028;-79
2022/04/28 08:27:06;;;;;;;5.72;1.95;;;;;;;;;;5059697;28;20082;-79
2022/04/28 08:29:33;;;;;;;3.13;1.60;;;;;;;;;;5065308;28;20025;-79
2022/04/28 08:32:00;;;;;;;3.20;1.88;;;;;;;;;;5062679;28;20066;-77
2022/04/28 08:34:28;;;;;;;6.38;2.00;;;;;;;;;;5055082;28;20033;-76
2022/04/28 08:36:55;;;;;;;3.70;2.00;;;;;;;;;;5055380;28;20059;-79
2022/04/28 08:39:22;;;;;;;2.20;1.40;;;;;;;;;;5058087;28;20117;-78
2022/04/28 08:41:49;;;;;;;3.63;1.60;;;;;;;;;;5057885;28;20480;-78
2022/04/28 08:44:24;;;;;;;4.47;2.10;;;;;;;;;;5059172;28;20049;-78
2022/04/28 08:46:53;;;;;;;1.90;1.67;;;;;;;;;;5059152;28;20052;-78
2022/04/28 08:49:28;;;;;;;3.50;2.13;;;;;;;;;;5058798;28;20432;-78
2022/04/28 08:51:56;;;;;;;5.88;2.10;;;;;;;;;;5059331;28;20021;-78
2022/04/28 08:54:25;;;;;;;2.63;1.73;;;;;;;;;;5058037;28;20052;-78
2022/04/28 08:56:53;;;;;;;3.83;1.90;;;;;;;;;;5059813;28;20029;-78
2022/04/28 08:59:21;;;;;;;3.95;1.92;;;;;;;;;;5062894;28;20043;-77
2022/04/28 09:01:50;;;;;;;3.70;2.10;;;;;;;;;;5058718;28;20358;-78
2022/04/28 09:04:22;;;;;;;2.90;1.70;;;;;;;;;;5057763;28;20029;-78
2022/04/28 09:06:53;;;;;;;4.40;1.83;;;;;;;;;;5059495;28;20492;-78
2022/04/28 09:09:21;;;;;;;3.95;2.20;;;;;;;;;;5060271;28;20104;-78
2022/04/28 09:11:49;;;;;;;2.83;1.60;;;;;;;;;;5058368;28;20028;-78
2022/04/28 09:14:20;;;;;;;2.63;1.60;;;;;;;;;;5055372;28;20029;-76
2022/04/28 09:16:50;;;;;;;1.77;1.42;;;;;;;;;;5060057;28;20128;-79
2022/04/28 09:19:19;;;;;;;3.53;1.40;;;;;;;;;;5060358;28;20036;-79
2022/04/28 09:21:47;;;;;;;3.85;1.88;;;;;;;;;;5057446;28;20238;-78
2022/04/28 09:24:14;;;;;;;2.17;1.38;;;;;;;;;;5057628;28;20021;-79
2022/04/28 09:26:42;;;;;;;2.78;1.70;;;;;;;;;;5057714;28;20489;-78
2022/04/28 09:29:13;;;;;;;2.90;1.60;;;;;;;;;;5056299;28;20126;-77
2022/04/28 09:31:42;;;;;;;2.75;1.80;;;;;;;;;;5055446;28;20025;-77
2022/04/28 09:34:11;;;;;;;2.35;1.55;;;;;;;;;;5056629;28;20025;-77
2022/04/28 09:36:39;;;;;;;2.60;1.45;;;;;;;;;;5055181;28;20404;-78
2022/04/28 09:39:07;;;;;;;3.35;1.30;;;;;;;;;;5055081;28;20485;-77
2022/04/28 09:44:21;;;;;;;2.42;1.50;;;;;;;;;;5056632;28;20055;-80
2022/04/28 09:46:49;;;;;;;2.45;1.52;;;;;;;;;;5056063;28;20420;-78
2022/04/28 09:49:23;;;;;;;1.52;1.38;;;;;;;;;;5054068;28;20237;-78
2022/04/28 09:51:59;;;;;;;2.13;1.50;;;;;;;;;;5054667;28;20415;-80
2022/04/28 09:54:29;;;;;;;1.95;1.55;;;;;;;;;;5053808;28;20111;-78
2022/04/28 09:56:56;;;;;;;2.70;1.50;;;;;;;;;;5053427;28;20124;-79
2022/04/28 09:59:25;;;;;;;2.20;1.50;;;;;;;;;;5052349;28;20372;-79
2022/04/28 10:01:53;;;;;;;2.50;1.73;;;;;;;;;;5053386;28;20028;-80
2022/04/28 10:04:20;;;;;;;3.72;1.67;;;;;;;;;;5053526;28;20021;-79
2022/04/28 10:06:49;;;;;;;2.75;2.00;;;;;;;;;;5054475;28;20093;-79
2022/04/28 10:09:17;;;;;;;1.85;1.73;;;;;;;;;;5053081;28;20032;-78
2022/04/28 10:11:45;;;;;;;2.92;1.73;;;;;;;;;;5052845;28;20158;-77
2022/04/28 10:14:14;;;;;;;4.90;1.98;;;;;;;;;;5052869;28;20096;-78
2022/04/28 10:16:43;;;;;;;3.72;1.75;;;;;;;;;;5052650;28;20369;-78
2022/04/28 10:19:11;;;;;;;2.78;2.10;;;;;;;;;;5051423;28;20029;-77
2022/04/28 10:21:45;;;;;;;3.13;2.00;;;;;;;;;;5051406;28;20028;-78
2022/04/28 10:33:15;;;;;;;4.15;1.58;;;;;;;;;;5052928;28;20120;-78
2022/04/28 10:35:43;;;;;;;3.63;1.60;;;;;;;;;;5043751;28;20041;-78
2022/04/28 10:38:35;;;;;;;2.90;1.75;;;;;;;;;;5052525;28;20028;-78
2022/04/28 10:41:03;;;;;;;2.15;1.40;;;;;;;;;;5052595;28;20485;-78
2022/04/28 10:43:33;;;;;;;2.42;1.33;;;;;;;;;;5051154;28;20025;-78
2022/04/28 10:46:04;;;;;;;2.97;1.85;;;;;;;;;;5051720;28;20029;-79
2022/04/28 10:48:31;;;;;;;3.15;1.40;;;;;;;;;;5052638;28;20132;-78
2022/04/28 10:51:06;;;;;;;2.42;1.10;;;;;;;;;;5055546;28;20032;-79
2022/04/28 10:53:34;;;;;;;3.88;1.60;;;;;;;;;;5056699;28;20510;-79
2022/04/28 10:56:13;;;;;;;3.60;1.17;;;;;;;;;;5058707;28;20055;-80
2022/04/28 10:58:40;;;;;;;2.08;1.27;;;;;;;;;;5057875;28;20025;-81
2022/04/28 11:01:07;;;;;;;3.67;1.40;;;;;;;;;;5055923;28;20028;-80
2022/04/28 11:03:47;;;;;;;3.95;1.38;;;;;;;;;;5055059;28;20104;-79
2022/04/28 11:06:16;;;;;;;2.60;1.23;;;;;;;;;;5054886;28;20056;-80
2022/04/28 11:08:55;;;;;;;3.00;1.33;;;;;;;;;;5056179;28;20539;-79
2022/04/28 11:11:22;;;;;;;2.10;1.50;;;;;;;;;;5054979;28;20029;-79
2022/04/28 11:13:56;;;;;;;2.15;1.13;;;;;;;;;;5056145;28;20024;-79
2022/04/28 11:16:23;;;;;;;1.88;1.27;;;;;;;;;;5056001;28;20163;-79
2022/04/28 11:18:50;;;;;;;2.78;1.20;;;;;;;;;;5056469;28;20021;-79
2022/04/28 11:21:17;;;;;;;2.15;1.20;;;;;;;;;;5055216;28;20024;-79
2022/04/28 11:23:46;;;;;;;3.22;1.33;;;;;;;;;;5056167;28;20047;-79
2022/04/28 11:26:14;;;;;;;3.25;1.48;;;;;;;;;;5056476;28;20025;-79
2022/04/28 11:28:42;;;;;;;1.75;1.13;;;;;;;;;;5056426;28;20028;-79
2022/04/28 11:31:11;;;;;;;2.45;1.40;;;;;;;;;;5056240;28;20389;-79
2022/04/28 11:33:42;;;;;;;1.80;1.40;;;;;;;;;;5057355;28;20021;-79
2022/04/28 11:36:29;;;;;;;2.95;1.63;;;;;;;;;;5055732;28;20025;-79
2022/04/28 11:39:04;;;;;;;5.65;2.25;;;;;;;;;;5055207;28;20029;-79
2022/04/28 11:41:33;;;;;;;2.13;1.77;;;;;;;;;;5056070;28;20021;-79
2022/04/28 11:44:01;;;;;;;4.03;1.95;;;;;;;;;;5055997;28;20507;-79
2022/04/28 11:46:28;;;;;;;1.98;1.77;;;;;;;;;;5056484;28;20404;-79
2022/04/28 11:48:55;;;;;;;3.20;2.10;;;;;;;;;;5056552;28;20380;-79
2022/04/28 11:51:24;;;;;;;2.80;1.73;;;;;;;;;;5057807;28;20032;-80
2022/04/28 11:53:53;;;;;;;2.28;1.83;;;;;;;;;;5057558;28;20031;-79
2022/04/28 11:56:21;;;;;;;2.80;2.05;;;;;;;;;;5055775;28;20078;-79
2022/04/28 11:58:50;;;;;;;2.65;2.03;;;;;;;;;;5056465;28;20077;-80
2022/04/28 12:01:19;;;;;;;3.10;2.10;;;;;;;;;;5056252;28;20029;-80
2022/04/28 12:03:50;;;;;;;4.18;1.70;;;;;;;;;;5053209;28;20515;-79
2022/04/28 12:06:18;;;;;;;6.50;1.95;;;;;;;;;;5054006;28;20063;-79
2022/04/28 12:14:37;;;;;;;3.75;1.63;;;;;;;;;;5055546;28;20036;-80
2022/04/28 12:19:53;;;;;;;3.28;1.65;;;;;;;;;;5055312;28;20124;-79
2022/04/28 12:22:37;;;;;;;4.03;2.17;;;;;;;;;;5053758;28;20024;-79
2022/04/28 12:25:16;;;;;;;2.63;1.50;;;;;;;;;;5053860;28;20023;-79
2022/04/28 12:27:47;;;;;;;2.28;1.38;;;;;;;;;;5053813;28;20112;-79
2022/04/28 12:30:18;;;;;;;3.03;1.52;;;;;;;;;;5053519;28;20040;-79
2022/04/28 12:32:54;;;;;;;2.75;1.40;;;;;;;;;;5053658;28;20025;-78
2022/04/28 12:35:23;;;;;;;1.55;1.30;;;;;;;;;;5054581;28;20029;-79
2022/04/28 12:37:54;;;;;;;2.92;1.45;;;;;;;;;;5054668;28;20021;-79
2022/04/28 12:40:22;;;;;;;2.75;1.20;;;;;;;;;;5054634;28;20028;-79
2022/04/28 12:42:50;;;;;;;2.33;1.70;;;;;;;;;;5054726;28;20358;-79
2022/04/28 12:45:34;;;;;;;2.63;1.38;;;;;;;;;;5053421;28;20029;-79
2022/04/28 12:48:02;;;;;;;3.70;1.63;;;;;;;;;;5054432;28;20070;-79
2022/04/28 12:50:29;;;;;;;2.33;2.00;;;;;;;;;;5054625;28;20021;-79
2022/04/28 12:52:56;;;;;;;3.20;1.83;;;;;;;;;;5054436;28;20033;-79
2022/04/28 12:55:23;;;;;;;2.65;1.80;;;;;;;;;;5054838;28;20024;-80
2022/04/28 12:57:52;;;;;;;3.60;2.00;;;;;;;;;;5054707;28;20040;-80
2022/04/28 13:00:19;;;;;;;3.10;2.20;;;;;;;;;;5054993;28;20029;-79
2022/04/28 13:02:51;;;;;;;2.42;2.10;;;;;;;;;;5053583;28;20035;-79
2022/04/28 13:05:20;;;;;;;3.13;1.80;;;;;;;;;;5054571;28;20131;-80
2022/04/28 13:07:47;;;;;;;2.00;1.80;;;;;;;;;;5053644;28;20374;-80
2022/04/28 13:10:16;;;;;;;3.28;1.73;;;;;;;;;;5053127;28;20374;-79
2022/04/28 13:12:43;;;;;;;2.00;1.48;;;;;;;;;;5053298;28;20048;-80
2022/04/28 13:15:11;;;;;;;4.10;1.95;;;;;;;;;;5055395;28;20483;-81
2022/04/28 13:17:38;;;;;;;2.30;1.73;;;;;;;;;;5054482;28;20067;-80
2022/04/28 13:20:06;;;;;;;1.85;1.67;;;;;;;;;;5053243;28;20025;-80
2022/04/28 13:22:34;;;;;;;2.40;1.42;;;;;;;;;;5054728;28;20149;-80
2022/04/28 13:25:01;;;;;;;2.40;1.63;;;;;;;;;;5054800;28;20473;-80
2022/04/28 13:27:28;;;;;;;2.42;1.70;;;;;;;;;;5054713;28;20029;-80
2022/04/28 13:29:56;;;;;;;2.67;1.95;;;;;;;;;;5053422;28;20049;-80
2022/04/28 13:32:23;;;;;;;2.63;1.90;;;;;;;;;;5053317;28;20537;-80
2022/04/28 13:34:50;;;;;;;2.10;1.90;;;;;;;;;;5053773;28;20385;-79
2022/04/28 13:37:17;;;;;;;2.15;1.70;;;;;;;;;;5052396;28;20063;-79
2022/04/28 13:39:44;;;;;;;3.20;2.03;;;;;;;;;;5052403;28;20490;-80
2022/04/28 13:42:11;;;;;;;1.85;1.60;;;;;;;;;;5053654;28;20067;-79
2022/04/28 13:44:40;;;;;;;3.95;1.70;;;;;;;;;;5052200;28;20427;-79
2022/04/28 13:47:07;;;;;;;3.45;1.98;;;;;;;;;;5052975;28;20025;-78
2022/04/28 13:49:34;;;;;;;2.83;1.83;;;;;;;;;;5055421;28;20477;-78
2022/04/28 13:52:02;;;;;;;2.95;1.95;;;;;;;;;;5056103;28;20396;-78
2022/04/28 13:54:29;;;;;;;2.92;2.08;;;;;;;;;;5056558;28;20025;-78
2022/04/28 13:56:56;;;;;;;3.50;1.98;;;;;;;;;;5055472;28;20052;-79
2022/04/28 13:59:24;;;;;;;3.08;1.90;;;;;;;;;;5054836;28;20021;-78
2022/04/28 14:01:51;;;;;;;2.40;1.83;;;;;;;;;;5056430;28;20021;-78
2022/04/28 14:04:24;;;;;;;7.43;2.65;;;;;;;;;;5054428;28;20036;-79
2022/04/28 14:06:52;;;;;;;3.75;2.00;;;;;;;;;;5055420;28;20035;-78
2022/04/28 14:09:20;;;;;;;4.05;2.00;;;;;;;;;;5055155;28;20031;-78
2022/04/28 14:11:47;;;;;;;2.33;2.10;;;;;;;;;;5053508;28;20108;-78
2022/04/28 14:14:15;;;;;;;5.95;2.72;;;;;;;;;;5055711;28;20029;-78
2022/04/28 14:29:29;;;;;;;2.63;2.00;;;;;;;;;;5057273;28;20064;-78
2022/04/28 14:31:56;;;;;;;4.75;2.17;;;;;;;;;;5057093;28;20099;-77
2022/04/28 14:34:24;;;;;;;4.45;2.08;;;;;;;;;;5055676;28;20056;-78
2022/04/28 14:36:51;;;;;;;1.90;1.55;;;;;;;;;;5056840;28;20025;-77
2022/04/28 14:39:18;;;;;;;2.40;1.75;;;;;;;;;;5056915;28;20036;-77
2022/04/28 14:41:45;;;;;;;1.92;1.50;;;;;;;;;;5056841;28;20025;-77
2022/04/28 14:44:12;;;;;;;4.43;1.77;;;;;;;;;;5056584;28;20033;-78
2022/04/28 14:46:40;;;;;;;2.58;1.75;;;;;;;;;;5055672;28;20500;-77
2022/04/28 15:08:09;;;;;;;2.97;1.50;;;;;;;;;;5043840;28;20064;-78
2022/04/28 15:10:36;;;;;;;2.00;1.67;;;;;;;;;;5055218;28;20033;-77
2022/04/28 15:13:04;;;;;;;1.52;1.33;;;;;;;;;;5054933;28;20078;-76
2022/04/28 15:15:33;;;;;;;3.05;1.92;;;;;;;;;;5056108;28;20108;-76
2022/04/28 15:18:00;;;;;;;1.83;1.35;;;;;;;;;;5054681;28;20369;-77
2022/04/28 15:20:27;;;;;;;2.25;1.95;;;;;;;;;;5055461;28;20021;-77
2022/04/28 15:22:54;;;;;;;3.58;1.80;;;;;;;;;;5056720;28;20045;-77
2022/04/28 15:25:21;;;;;;;1.92;1.50;;;;;;;;;;5055095;28;20025;-77
2022/04/28 15:27:49;;;;;;;2.50;1.83;;;;;;;;;;5056248;28;20032;-77
2022/04/28 15:30:16;;;;;;;3.20;1.67;;;;;;;;;;5056540;28;20502;-78
2022/04/28 15:32:43;;;;;;;3.42;1.80;;;;;;;;;;5055943;28;20127;-77
2022/04/28 15:35:11;;;;;;;3.65;1.85;;;;;;;;;;5054536;28;20021;-77
2022/04/28 15:37:39;;;;;;;1.90;1.65;;;;;;;;;;5054483;28;20028;-77
2022/04/28 15:40:09;;;;;;;3.25;1.65;;;;;;;;;;5055815;28;20045;-77
2022/04/28 15:42:36;;;;;;;2.20;1.50;;;;;;;;;;5055728;28;20100;-77
2022/04/28 15:45:04;;;;;;;1.67;1.58;;;;;;;;;;5055630;28;20025;-77
2022/04/28 15:47:31;;;;;;;1.90;1.63;;;;;;;;;;5054223;28;20480;-77
2022/04/28 15:49:58;;;;;;;3.03;1.77;;;;;;;;;;5054232;28;20040;-76
2022/04/28 15:52:26;;;;;;;3.08;1.83;;;;;;;;;;5054245;28;20048;-76
2022/04/28 15:54:53;;;;;;;3.63;1.58;;;;;;;;;;5055518;28;20171;-76
2022/04/28 15:57:21;;;;;;;3.75;1.70;;;;;;;;;;5054097;28;20025;-76
2022/04/28 15:59:49;;;;;;;3.50;1.40;;;;;;;;;;5053872;28;20025;-76
2022/04/28 16:02:18;;;;;;;3.05;1.55;;;;;;;;;;5053954;28;20021;-76
2022/04/28 16:04:45;;;;;;;1.75;1.60;;;;;;;;;;5053716;28;20028;-77
2022/04/28 16:07:13;;;;;;;2.65;1.40;;;;;;;;;;5054965;28;20021;-77
2022/04/28 16:09:40;;;;;;;2.85;1.73;;;;;;;;;;5055262;28;20036;-77
2022/04/28 16:12:07;;;;;;;2.17;1.50;;;;;;;;;;5055189;28;20025;-78